Time;durP1;ratioP1;P1;durP2;ratioP2;P2;SDS_P1;SDS_P2;PMS_P1;PMS_P2;Temp;Humidity;BMP_temperature;BMP_pressure;BME280_temperature;BME280_humidity;BME280_pressure;Samples;Min_cycle;Max_cycle;Signal;HPM_P1;HPM_P2
2023/04/11 00:01:31;;;;;;;26.83;13.75;;;;;;;9.23;59.70;99869.34;4462879;31;20096;-91
2023/04/11 00:03:57;;;;;;;28.00;13.05;;;;;;;8.94;59.68;99867.41;4477479;32;20504;-91
2023/04/11 00:06:23;;;;;;;26.17;14.02;;;;;;;8.83;59.68;99859.91;4486289;31;20153;-92
2023/04/11 00:08:48;;;;;;;26.12;13.30;;;;;;;8.92;59.68;99856.22;4471082;32;20126;-92
2023/04/11 00:11:14;;;;;;;24.75;14.02;;;;;;;8.85;59.68;99858.13;4468693;32;20657;-91
2023/04/11 00:13:40;;;;;;;24.73;13.07;;;;;;;8.63;59.66;99849.13;4464034;32;20398;-90
2023/04/11 00:16:07;;;;;;;23.70;12.73;;;;;;;8.62;59.66;99850.00;4468826;32;20396;-91
2023/04/11 00:18:34;;;;;;;27.00;12.75;;;;;;;8.50;59.65;99845.91;4458383;32;20138;-90
2023/04/11 00:21:00;;;;;;;28.10;13.00;;;;;;;8.44;59.66;99846.06;4471096;31;20150;-92
2023/04/11 00:23:25;;;;;;;27.17;13.55;;;;;;;8.53;59.66;99843.28;4486122;31;20463;-91
2023/04/11 00:25:51;;;;;;;26.67;13.10;;;;;;;8.36;59.64;99847.13;4467889;32;20156;-91
2023/04/11 00:28:16;;;;;;;25.88;13.88;;;;;;;8.40;59.65;99844.44;4481147;31;20177;-91
2023/04/11 00:30:41;;;;;;;27.52;13.43;;;;;;;8.32;59.65;99841.13;4481033;32;20114;-91
2023/04/11 00:33:07;;;;;;;30.10;13.68;;;;;;;8.34;59.64;99843.72;4470741;32;20182;-92
2023/04/11 00:35:33;;;;;;;25.05;12.70;;;;;;;8.39;59.66;99847.91;4470335;32;20177;-92
2023/04/11 00:38:00;;;;;;;27.00;13.50;;;;;;;8.28;59.64;99840.34;4463757;32;20586;-92
2023/04/11 00:40:25;;;;;;;26.77;12.30;;;;;;;8.25;59.64;99840.37;4458155;32;20118;-92
2023/04/11 00:42:50;;;;;;;23.70;13.15;;;;;;;8.26;59.64;99841.22;4467468;31;21763;-93
2023/04/11 00:45:16;;;;;;;27.75;13.93;;;;;;;8.07;59.64;99843.38;4459599;32;24293;-91
2023/04/11 00:47:41;;;;;;;25.45;13.05;;;;;;;8.13;59.63;99835.47;4464845;32;20193;-91
2023/04/11 00:50:07;;;;;;;25.75;13.35;;;;;;;8.09;59.64;99822.59;4463111;31;20148;-91
2023/04/11 00:52:33;;;;;;;27.08;13.65;;;;;;;8.07;59.64;99825.22;4464811;32;20100;-91
2023/04/11 00:55:01;;;;;;;27.27;12.98;;;;;;;7.97;59.62;99827.13;4468691;32;20139;-92
2023/04/11 00:57:26;;;;;;;26.77;13.48;;;;;;;7.94;59.63;99823.75;4464147;32;20112;-92
2023/04/11 00:59:52;;;;;;;25.77;13.60;;;;;;;7.94;59.63;99827.19;4471201;31;20108;-91
2023/04/11 01:02:17;;;;;;;29.63;14.18;;;;;;;8.03;59.63;99833.94;4474067;31;20152;-92
2023/04/11 01:04:43;;;;;;;28.20;13.18;;;;;;;8.16;59.64;99831.94;4471379;32;20123;-92
2023/04/11 01:07:08;;;;;;;22.20;12.32;;;;;;;8.04;59.63;99825.25;4458562;32;20104;-92
2023/04/11 01:09:34;;;;;;;28.45;13.25;;;;;;;7.96;59.63;99827.16;4468275;32;20136;-93
2023/04/11 01:12:00;;;;;;;25.65;13.18;;;;;;;7.69;59.62;99821.66;4470981;32;20108;-92
2023/04/11 01:14:25;;;;;;;26.65;13.32;;;;;;;7.65;59.61;99817.41;4457910;32;20449;-93
2023/04/11 01:16:51;;;;;;;26.52;13.75;;;;;;;7.68;59.61;99809.56;4467206;31;20117;-92
2023/04/11 01:19:18;;;;;;;27.67;12.82;;;;;;;7.82;59.62;99818.84;4458315;32;20169;-93
2023/04/11 01:21:44;;;;;;;26.05;12.25;;;;;;;7.88;59.62;99809.19;4467109;31;20119;-92
2023/04/11 01:24:10;;;;;;;27.02;12.20;;;;;;;7.77;59.62;99810.28;4471200;32;20123;-91
2023/04/11 01:26:36;;;;;;;25.85;12.95;;;;;;;7.74;59.61;99800.81;4467043;31;20124;-93
2023/04/11 01:29:01;;;;;;;27.77;13.52;;;;;;;7.70;59.62;99796.59;4468264;32;20353;-92
2023/04/11 01:31:27;;;;;;;28.27;14.30;;;;;;;7.65;59.61;99796.69;4463288;32;20150;-92
2023/04/11 01:33:52;;;;;;;33.78;16.65;;;;;;;7.68;59.61;99806.12;4457210;32;20168;-91
2023/04/11 01:36:17;;;;;;;34.55;17.80;;;;;;;7.51;59.60;99808.19;4457941;32;20115;-91
2023/04/11 01:38:43;;;;;;;26.52;15.57;;;;;;;7.41;59.60;99802.34;4469564;32;20140;-92
2023/04/11 01:41:08;;;;;;;31.20;15.88;;;;;;;7.45;59.60;99803.13;4459483;32;20109;-92
2023/04/11 01:43:34;;;;;;;31.62;16.95;;;;;;;7.40;59.60;99798.03;4461798;32;20108;-92
2023/04/11 01:45:59;;;;;;;27.90;14.40;;;;;;;7.29;59.59;99794.78;4466080;32;20168;-92
2023/04/11 01:48:24;;;;;;;28.60;15.27;;;;;;;7.33;59.59;99793.81;4459430;32;20104;-93
2023/04/11 01:50:50;;;;;;;29.85;14.77;;;;;;;7.34;59.59;99793.81;4465670;32;20100;-93
2023/04/11 01:53:16;;;;;;;28.30;14.73;;;;;;;7.31;59.60;99793.84;4483188;32;20156;-93
2023/04/11 01:55:41;;;;;;;26.62;13.60;;;;;;;7.24;59.58;99796.59;4468675;31;20241;-93
2023/04/11 01:58:06;;;;;;;28.58;13.93;;;;;;;7.26;59.59;99792.25;4461968;32;20499;-93
2023/04/11 02:00:32;;;;;;;24.05;12.70;;;;;;;7.14;59.58;99792.47;4473563;32;20128;-92
2023/04/11 02:02:57;;;;;;;27.45;13.32;;;;;;;7.13;59.58;99785.59;4459306;32;20123;-91
2023/04/11 02:05:23;;;;;;;25.37;13.75;;;;;;;7.17;59.58;99788.09;4467564;31;20564;-92
2023/04/11 02:07:48;;;;;;;30.05;14.15;;;;;;;7.08;59.57;99798.59;4461070;32;20116;-91
2023/04/11 02:10:14;;;;;;;27.25;13.43;;;;;;;7.03;59.58;99795.22;4459304;32;20339;-93
2023/04/11 02:12:39;;;;;;;25.17;11.85;;;;;;;7.07;59.57;99782.19;4470594;32;20535;-92
2023/04/11 02:15:05;;;;;;;29.65;14.15;;;;;;;7.32;59.60;99785.22;4467410;31;20112;-92
2023/04/11 02:17:30;;;;;;;28.90;14.45;;;;;;;7.27;59.59;99781.84;4461980;32;20092;-92
2023/04/11 02:19:56;;;;;;;27.95;13.10;;;;;;;7.31;59.60;99783.50;4464875;32;22896;-92
2023/04/11 02:22:22;;;;;;;28.40;13.90;;;;;;;7.17;59.58;99776.88;4469812;32;20510;-92
2023/04/11 02:24:50;;;;;;;29.98;13.00;;;;;;;6.99;59.57;99781.50;4459572;32;20100;-94
2023/04/11 02:27:15;;;;;;;27.35;13.48;;;;;;;6.96;59.57;99784.12;4460404;32;20092;-92
2023/04/11 02:29:40;;;;;;;31.15;14.27;;;;;;;6.96;59.57;99783.28;4466964;32;20122;-93
2023/04/11 02:32:06;;;;;;;31.15;14.00;;;;;;;6.97;59.57;99780.66;4473153;32;20173;-92
2023/04/11 02:34:31;;;;;;;28.45;14.63;;;;;;;6.79;59.56;99768.03;4472658;32;20131;-93
2023/04/11 02:36:57;;;;;;;29.15;14.30;;;;;;;6.95;59.57;99773.81;4473200;31;20123;-91
2023/04/11 02:39:23;;;;;;;28.38;13.20;;;;;;;6.75;59.56;99767.22;4467262;32;20112;-93
2023/04/11 02:41:48;;;;;;;30.55;14.32;;;;;;;6.68;59.55;99765.63;4475748;31;20186;-91
2023/04/11 02:44:13;;;;;;;27.05;13.10;;;;;;;6.63;59.54;99769.16;4475519;31;20116;-93
2023/04/11 02:46:39;;;;;;;32.22;14.57;;;;;;;6.65;59.56;99770.00;4461960;32;20105;-91
2023/04/11 02:49:05;;;;;;;29.20;13.88;;;;;;;6.60;59.55;99766.59;4465015;32;20129;-93
2023/04/11 02:51:31;;;;;;;28.23;13.60;;;;;;;6.64;59.55;99768.28;4462352;32;20123;-91
2023/04/11 02:53:57;;;;;;;30.50;14.20;;;;;;;6.64;59.55;99770.88;4476062;31;20100;-92
2023/04/11 02:56:22;;;;;;;32.47;16.00;;;;;;;6.65;59.56;99772.59;4475739;31;20119;-93
2023/04/11 02:58:47;;;;;;;29.40;15.25;;;;;;;6.75;59.56;99763.78;4468304;32;32553;-94
2023/04/11 03:01:15;;;;;;;28.02;13.95;;;;;;;6.58;59.55;99776.12;4461031;32;20131;-93
2023/04/11 03:03:41;;;;;;;33.42;16.15;;;;;;;6.46;59.54;99785.78;4465952;32;20502;-91
2023/04/11 03:06:10;;;;;;;35.35;15.65;;;;;;;6.53;59.55;99778.78;4461493;32;20192;-91
2023/04/11 03:08:36;;;;;;;33.25;15.73;;;;;;;6.48;59.54;99775.41;4459880;32;20131;-92
2023/04/11 03:11:05;;;;;;;35.40;15.25;;;;;;;6.59;59.55;99777.81;4470550;32;20108;-91
2023/04/11 03:13:31;;;;;;;31.10;16.15;;;;;;;6.33;59.53;99773.91;4467069;32;20168;-91
2023/04/11 03:15:56;;;;;;;35.72;15.88;;;;;;;6.48;59.54;99770.25;4473223;31;20364;-90
2023/04/11 03:18:22;;;;;;;31.35;15.23;;;;;;;6.39;59.54;99775.56;4474745;31;20088;-92
2023/04/11 03:20:48;;;;;;;32.30;15.20;;;;;;;6.50;59.55;99776.25;4461294;32;20109;-93
2023/04/11 03:23:13;;;;;;;31.30;15.40;;;;;;;6.37;59.53;99777.28;4486246;32;20112;-92
2023/04/11 03:25:39;;;;;;;31.73;15.40;;;;;;;6.38;59.54;99774.69;4459800;32;20095;-91
2023/04/11 03:28:05;;;;;;;30.27;15.00;;;;;;;6.64;59.56;99771.72;4487121;31;20155;-91
2023/04/11 03:30:30;;;;;;;29.77;14.02;;;;;;;6.63;59.54;99766.59;4471319;31;20112;-91
2023/04/11 03:32:59;;;;;;;30.88;13.77;;;;;;;6.58;59.55;99771.81;4471902;32;20135;-90
2023/04/11 03:35:25;;;;;;;29.75;14.18;;;;;;;6.44;59.54;99768.59;4470386;32;20501;-91
2023/04/11 03:37:51;;;;;;;37.50;16.52;;;;;;;6.55;59.55;99764.09;4482013;31;20181;-91
2023/04/11 03:40:17;;;;;;;33.97;14.98;;;;;;;6.59;59.55;99764.91;4461865;32;20128;-90
2023/04/11 03:42:44;;;;;;;30.35;14.75;;;;;;;6.78;59.56;99756.81;4468959;31;20108;-91
2023/04/11 03:45:09;;;;;;;24.48;11.77;;;;;;;6.64;59.55;99757.94;4465042;31;20087;-91
2023/04/11 03:47:35;;;;;;;30.15;13.70;;;;;;;6.66;59.56;99753.59;4488198;31;20388;-92
2023/04/11 03:50:00;;;;;;;26.73;12.93;;;;;;;6.64;59.54;99751.03;4471651;32;21423;-93
2023/04/11 03:52:26;;;;;;;28.70;14.32;;;;;;;6.50;59.54;99755.56;4458926;32;20437;-91
2023/04/11 03:54:51;;;;;;;25.65;13.38;;;;;;;6.50;59.53;99749.53;4458276;32;22529;-91
2023/04/11 03:57:16;;;;;;;29.45;13.43;;;;;;;6.39;59.54;99747.13;4464547;32;20153;-90
2023/04/11 03:59:42;;;;;;;24.63;12.60;;;;;;;6.61;59.55;99751.06;4482957;32;20163;-94
2023/04/11 04:02:07;;;;;;;32.13;15.15;;;;;;;6.58;59.55;99751.13;4473131;32;20108;-93
2023/04/11 04:04:33;;;;;;;28.92;14.50;;;;;;;6.58;59.55;99750.25;4470678;32;20384;-91
2023/04/11 04:06:58;;;;;;;27.77;15.05;;;;;;;6.71;59.55;99744.03;4473432;31;20110;-90
2023/04/11 04:09:24;;;;;;;31.80;14.77;;;;;;;6.66;59.56;99741.53;4481669;32;20138;-93
2023/04/11 04:11:49;;;;;;;30.65;13.70;;;;;;;6.55;59.55;99742.56;4459790;32;20144;-93
2023/04/11 04:14:15;;;;;;;32.05;14.45;;;;;;;6.54;59.54;99740.84;4486795;31;20084;-94
2023/04/11 04:16:40;;;;;;;28.98;13.27;;;;;;;6.53;59.55;99733.97;4467690;32;20144;-93
2023/04/11 04:19:06;;;;;;;29.73;13.98;;;;;;;6.69;59.55;99736.28;4473178;31;20144;-93
2023/04/11 04:21:32;;;;;;;26.90;13.60;;;;;;;6.73;59.56;99737.94;4467166;32;20117;-92
2023/04/11 04:24:02;;;;;;;28.40;13.55;;;;;;;6.77;59.56;99730.97;4482857;32;20171;-92
2023/04/11 04:26:28;;;;;;;30.67;14.80;;;;;;;6.96;59.57;99740.13;4480889;31;20107;-92
2023/04/11 04:28:56;;;;;;;29.30;13.35;;;;;;;7.02;59.57;99731.41;4463172;32;20104;-94
2023/04/11 04:31:24;;;;;;;29.42;13.75;;;;;;;7.05;59.57;99741.69;4465980;31;20099;-89
2023/04/11 04:33:50;;;;;;;26.85;12.65;;;;;;;7.05;59.58;99741.69;4470900;32;20396;-90
2023/04/11 04:36:16;;;;;;;25.17;12.95;;;;;;;7.23;59.58;99735.34;4457738;32;20100;-90
2023/04/11 04:38:42;;;;;;;25.48;13.50;;;;;;;7.20;59.58;99728.50;4474440;31;20100;-91
2023/04/11 04:41:14;;;;;;;26.95;13.02;;;;;;;7.24;59.58;99726.69;4470296;31;20108;-91
2023/04/11 04:43:40;;;;;;;26.40;13.43;;;;;;;7.25;59.59;99731.00;4460327;32;20096;-90
2023/04/11 04:46:06;;;;;;;24.55;12.30;;;;;;;7.39;59.60;99729.84;4480904;31;20087;-90
2023/04/11 04:48:31;;;;;;;24.70;12.02;;;;;;;7.40;59.59;99725.53;4483909;31;20429;-90
2023/04/11 04:50:57;;;;;;;23.33;12.93;;;;;;;7.69;59.62;99718.00;4472433;31;29673;-90
2023/04/11 04:53:22;;;;;;;25.52;11.95;;;;;;;7.73;59.61;99721.38;4469852;32;20136;-89
2023/04/11 04:55:48;;;;;;;25.40;12.73;;;;;;;7.79;59.61;99725.59;4493118;31;20385;-90
2023/04/11 04:58:13;;;;;;;22.50;11.35;;;;;;;7.94;59.63;99723.53;4483364;31;20093;-91
2023/04/11 05:00:39;;;;;;;23.05;12.18;;;;;;;8.21;59.64;99722.06;4482726;32;20560;-90
2023/04/11 05:03:04;;;;;;;23.10;11.85;;;;;;;8.28;59.64;99714.97;4467894;32;20096;-90
2023/04/11 05:05:30;;;;;;;22.17;11.35;;;;;;;8.20;59.64;99719.50;4466018;31;20112;-90
2023/04/11 05:07:55;;;;;;;26.50;12.63;;;;;;;8.43;59.65;99719.84;4473709;31;20116;-91
2023/04/11 05:10:21;;;;;;;22.23;12.43;;;;;;;8.78;59.67;99713.81;4463792;32;20116;-91
2023/04/11 05:12:46;;;;;;;23.12;11.98;;;;;;;9.07;59.69;99707.00;4482619;32;20089;-91
2023/04/11 05:15:13;;;;;;;25.12;11.85;;;;;;;9.16;59.69;99711.94;4459225;32;20093;-91
2023/04/11 05:17:39;;;;;;;23.77;11.70;;;;;;;9.34;59.71;99695.87;4469972;32;20159;-90
2023/04/11 05:20:07;;;;;;;20.17;11.52;;;;;;;9.53;59.71;99696.22;4472231;32;20151;-91
2023/04/11 05:22:33;;;;;;;22.05;10.55;;;;;;;9.80;59.73;99697.16;4474841;31;20127;-91
2023/04/11 05:24:59;;;;;;;19.25;10.82;;;;;;;9.90;59.73;99688.16;4491375;31;20140;-90
2023/04/11 05:27:26;;;;;;;20.88;10.30;;;;;;;9.99;59.73;99692.25;4471889;32;20100;-91
2023/04/11 05:29:53;;;;;;;20.88;11.30;;;;;;;10.32;59.76;99690.38;4485353;31;20528;-91
2023/04/11 05:32:18;;;;;;;18.50;9.93;;;;;;;10.55;59.77;99690.47;4482081;32;20106;-90
2023/04/11 05:34:53;;;;;;;21.08;10.68;;;;;;;10.82;59.78;99693.91;4468602;31;20461;-89
2023/04/11 05:37:19;;;;;;;18.85;10.25;;;;;;;10.96;59.79;99690.84;4477422;31;20156;-91
2023/04/11 05:39:44;;;;;;;21.83;11.18;;;;;;;11.13;59.79;99685.91;4477096;32;20138;-91
2023/04/11 05:42:10;;;;;;;20.10;10.63;;;;;;;11.35;59.81;99688.59;4469660;32;20088;-91
2023/04/11 05:44:35;;;;;;;17.73;10.20;;;;;;;11.60;59.83;99680.75;4471745;32;20396;-92
2023/04/11 05:47:00;;;;;;;21.42;10.10;;;;;;;11.67;59.83;99685.66;4468822;32;20166;-91
2023/04/11 05:49:26;;;;;;;18.37;10.45;;;;;;;11.85;59.84;99676.34;4466592;32;20122;-91
2023/04/11 05:51:51;;;;;;;16.98;9.63;;;;;;;12.15;59.85;99673.44;4474052;31;20167;-91
2023/04/11 05:54:29;;;;;;;19.95;10.63;;;;;;;12.31;59.86;99665.84;4471494;32;20145;-91
2023/04/11 05:56:55;;;;;;;19.37;11.23;;;;;;;12.50;59.88;99651.97;4463154;32;20127;-91
2023/04/11 05:59:22;;;;;;;23.73;11.43;;;;;;;12.86;59.89;99652.19;4462877;31;20488;-92
2023/04/11 06:01:49;;;;;;;26.77;13.55;;;;;;;12.91;59.90;99651.97;4458835;32;20096;-92
2023/04/11 06:04:14;;;;;;;25.20;12.45;;;;;;;12.86;59.89;99654.81;4469216;31;20108;-93
2023/04/11 06:06:41;;;;;;;23.95;12.50;;;;;;;12.97;59.90;99651.72;4464923;31;20120;-92
2023/04/11 06:09:08;;;;;;;24.20;12.60;;;;;;;13.09;59.90;99651.19;4486174;31;20096;-92
2023/04/11 06:11:34;;;;;;;28.23;13.70;;;;;;;13.08;59.90;99646.88;4459590;32;20445;-92
2023/04/11 06:13:59;;;;;;;27.42;13.15;;;;;;;13.39;59.92;99645.53;4459843;31;20096;-92
2023/04/11 06:16:25;;;;;;;24.08;12.93;;;;;;;13.39;59.92;99640.31;4467290;32;20139;-92
2023/04/11 06:18:50;;;;;;;21.17;11.45;;;;;;;13.58;59.94;99643.78;4459723;31;20392;-92
2023/04/11 06:21:15;;;;;;;19.02;11.05;;;;;;;13.64;59.94;99643.50;4493660;31;20158;-92
2023/04/11 06:23:41;;;;;;;20.88;11.25;;;;;;;13.58;59.94;99640.34;4457367;31;26217;-92
2023/04/11 06:26:06;;;;;;;22.37;12.15;;;;;;;13.79;59.95;99632.34;4471253;32;20161;-91
2023/04/11 06:28:32;;;;;;;21.40;12.45;;;;;;;14.00;59.95;99634.87;4458398;32;20100;-92
2023/04/11 06:30:57;;;;;;;19.75;11.30;;;;;;;14.03;59.96;99625.09;4458307;32;20595;-92
2023/04/11 06:33:23;;;;;;;21.87;12.05;;;;;;;14.03;59.96;99624.25;4472599;31;20134;-92
2023/04/11 06:35:48;;;;;;;22.10;12.48;;;;;;;14.21;59.97;99618.13;4462005;32;20101;-92
2023/04/11 06:38:13;;;;;;;21.70;12.25;;;;;;;14.30;59.97;99616.81;4459477;31;20213;-92
2023/04/11 06:40:39;;;;;;;24.15;12.55;;;;;;;14.58;59.99;99624.16;4484613;32;20100;-92
2023/04/11 06:43:04;;;;;;;22.73;12.23;;;;;;;14.63;59.98;99619.53;4471578;31;20151;-91
2023/04/11 06:45:30;;;;;;;26.33;12.82;;;;;;;14.66;59.99;99625.47;4484466;32;20147;-93
2023/04/11 06:47:55;;;;;;;20.00;11.93;;;;;;;14.86;60.00;99621.84;4458628;31;20115;-92
2023/04/11 06:50:21;;;;;;;24.12;13.73;;;;;;;15.08;60.00;99620.72;4464268;31;20156;-92
2023/04/11 06:52:46;;;;;;;24.63;14.68;;;;;;;15.32;60.03;99616.81;4471311;31;20585;-93
2023/04/11 06:55:14;;;;;;;22.60;12.98;;;;;;;15.28;60.02;99621.38;4474806;32;20139;-93
2023/04/11 06:57:40;;;;;;;26.05;14.25;;;;;;;15.29;60.02;99611.72;4467639;31;20112;-92
2023/04/11 07:00:08;;;;;;;21.92;13.52;;;;;;;15.15;60.01;99612.47;4458438;32;20092;-92
2023/04/11 07:02:37;;;;;;;23.02;13.30;;;;;;;15.46;60.02;99611.69;4485114;31;20212;-93
2023/04/11 07:05:03;;;;;;;24.60;14.15;;;;;;;15.52;60.03;99611.34;4484534;32;20096;-92
2023/04/11 07:07:29;;;;;;;21.50;12.05;;;;;;;15.63;60.05;99611.66;4468137;31;20138;-92
2023/04/11 07:09:55;;;;;;;25.05;12.75;;;;;;;15.73;60.05;99604.09;4471142;31;20096;-93
2023/04/11 07:12:20;;;;;;;19.52;11.55;;;;;;;16.01;60.07;99598.13;4482398;31;20130;-92
2023/04/11 07:14:46;;;;;;;21.48;11.75;;;;;;;16.16;60.08;99585.94;4470435;32;28317;-92
2023/04/11 07:17:11;;;;;;;21.92;11.98;;;;;;;16.32;60.08;99581.47;4458278;31;20210;-92
2023/04/11 07:19:36;;;;;;;17.85;10.57;;;;;;;16.53;60.09;99574.09;4464017;31;20199;-92
2023/04/11 07:22:03;;;;;;;18.52;10.70;;;;;;;16.90;60.11;99580.69;4471653;31;20148;-93
2023/04/11 07:24:29;;;;;;;16.77;10.10;;;;;;;17.16;60.13;99581.72;4480717;32;20184;-92
2023/04/11 07:26:57;;;;;;;16.45;8.43;;;;;;;17.35;60.14;99574.37;4468228;31;20108;-93
2023/04/11 07:29:22;;;;;;;12.77;7.75;;;;;;;17.37;60.13;99575.13;4467970;32;20121;-92
2023/04/11 07:31:49;;;;;;;12.68;7.20;;;;;;;17.68;60.15;99576.69;4458429;31;20357;-93
2023/04/11 07:34:14;;;;;;;13.27;7.93;;;;;;;17.89;60.16;99566.56;4464992;31;20502;-92
2023/04/11 07:36:40;;;;;;;13.80;8.02;;;;;;;18.12;60.18;99574.75;4470690;31;20140;-92
2023/04/11 07:39:08;;;;;;;15.50;9.90;;;;;;;18.25;60.19;99570.38;4465093;31;20162;-93
2023/04/11 07:41:35;;;;;;;17.60;10.50;;;;;;;18.33;60.19;99579.44;4462050;31;20097;-93
2023/04/11 07:44:00;;;;;;;16.95;9.02;;;;;;;18.51;60.20;99581.81;4462747;32;20108;-93
2023/04/11 07:46:25;;;;;;;18.27;10.30;;;;;;;18.72;60.21;99584.81;4482271;31;20143;-92
2023/04/11 07:48:51;;;;;;;16.25;10.57;;;;;;;18.82;60.21;99580.59;4466648;32;20104;-92
2023/04/11 07:51:16;;;;;;;19.30;10.73;;;;;;;18.95;60.22;99570.91;4468787;31;20112;-93
2023/04/11 07:53:42;;;;;;;15.88;9.20;;;;;;;19.01;60.23;99576.59;4467014;32;20160;-92
2023/04/11 07:56:07;;;;;;;17.35;10.55;;;;;;;19.06;60.22;99568.34;4458783;31;26391;-94
2023/04/11 07:58:33;;;;;;;18.67;10.32;;;;;;;19.15;60.23;99567.69;4473516;31;20095;-94
2023/04/11 08:00:58;;;;;;;13.62;9.13;;;;;;;19.25;60.24;99570.53;4471554;31;20461;-92
2023/04/11 08:03:24;;;;;;;16.02;10.07;;;;;;;19.30;60.23;99565.78;4473150;31;20120;-93
2023/04/11 08:05:49;;;;;;;20.02;10.13;;;;;;;19.22;60.23;99561.06;4462700;31;20140;-93
2023/04/11 08:08:15;;;;;;;19.25;11.30;;;;;;;19.33;60.24;99561.13;4467527;32;20158;-93
2023/04/11 08:10:40;;;;;;;17.92;10.95;;;;;;;19.36;60.24;99557.41;4479411;31;20114;-92
2023/04/11 08:13:06;;;;;;;17.48;10.25;;;;;;;19.60;60.25;99554.84;4467007;32;25824;-94
2023/04/11 08:15:31;;;;;;;16.40;10.70;;;;;;;19.65;60.26;99541.34;4480941;31;20092;-93
2023/04/11 08:17:58;;;;;;;16.12;10.10;;;;;;;19.80;60.26;99533.12;4470719;32;20138;-93
2023/04/11 08:20:24;;;;;;;16.42;10.68;;;;;;;19.78;60.27;99539.47;4468497;31;20100;-92
2023/04/11 08:22:50;;;;;;;16.67;10.48;;;;;;;19.93;60.27;99531.28;4457671;32;20104;-93
2023/04/11 08:25:18;;;;;;;19.48;11.75;;;;;;;19.97;60.27;99531.03;4468169;31;20411;-93
2023/04/11 08:27:43;;;;;;;16.87;11.20;;;;;;;19.96;60.27;99524.06;4463827;31;20083;-92
2023/04/11 08:30:09;;;;;;;18.23;11.30;;;;;;;20.01;60.28;99521.91;4470248;31;20436;-92
2023/04/11 08:32:35;;;;;;;26.12;18.02;;;;;;;20.16;60.29;99518.16;4463162;31;20185;-93
2023/04/11 08:35:00;;;;;;;23.08;12.82;;;;;;;20.23;60.29;99511.44;4462441;31;20159;-92
2023/04/11 08:37:26;;;;;;;22.35;13.68;;;;;;;20.16;60.29;99508.41;4472759;31;21066;-92
2023/04/11 08:39:52;;;;;;;20.42;12.85;;;;;;;20.15;60.28;99497.97;4472272;31;20114;-93
2023/04/11 08:42:25;;;;;;;22.60;13.20;;;;;;;20.26;60.29;99499.78;4460113;32;20148;-93
2023/04/11 08:44:58;;;;;;;23.87;12.52;;;;;;;20.37;60.30;99489.25;4457528;31;20189;-93
2023/04/11 08:47:23;;;;;;;21.23;13.80;;;;;;;20.44;60.30;99490.47;4459229;32;20083;-93
2023/04/11 08:49:49;;;;;;;21.08;12.63;;;;;;;20.36;60.30;99487.56;4484456;31;20513;-92
2023/04/11 08:52:15;;;;;;;19.98;12.15;;;;;;;20.40;60.30;99481.94;4494023;31;20141;-93
2023/04/11 08:54:40;;;;;;;21.87;13.40;;;;;;;20.26;60.29;99470.69;4459528;32;20095;-93
2023/04/11 08:57:06;;;;;;;20.77;13.60;;;;;;;20.36;60.30;99471.69;4485429;32;20103;-92
2023/04/11 08:59:34;;;;;;;22.73;13.93;;;;;;;20.38;60.29;99465.34;4469475;31;20131;-93
2023/04/11 09:02:09;;;;;;;25.42;14.23;;;;;;;20.41;60.30;99469.56;4479903;31;20460;-93
2023/04/11 09:04:39;;;;;;;24.67;14.87;;;;;;;20.45;60.29;99473.66;4472690;31;20734;-93
2023/04/11 09:07:04;;;;;;;;;;;;;;;20.44;60.30;99470.19;4466036;31;20776;-93
2023/04/11 09:09:30;;;;;;;20.37;14.37;;;;;;;20.58;60.31;99470.88;4481971;32;25632;-93
2023/04/11 09:11:55;;;;;;;30.05;16.20;;;;;;;20.60;60.31;99469.84;4472192;32;20480;-93
2023/04/11 09:14:25;;;;;;;25.37;14.90;;;;;;;20.73;60.32;99459.97;4485939;31;20144;-92
2023/04/11 09:17:05;;;;;;;21.40;14.27;;;;;;;20.66;60.32;99460.56;4478282;32;20449;-92
2023/04/11 09:19:31;;;;;;;26.77;15.00;;;;;;;20.75;60.32;99451.91;4459144;32;20084;-93
2023/04/11 09:22:01;;;;;;;21.37;14.55;;;;;;;20.87;60.33;99453.59;4472447;31;20152;-93
2023/04/11 09:24:29;;;;;;;22.20;14.55;;;;;;;20.83;60.32;99450.38;4472058;32;20088;-92
2023/04/11 09:27:25;;;;;;;24.12;14.87;;;;;;;20.98;60.33;99435.06;4469105;31;20088;-93
2023/04/11 09:29:50;;;;;;;24.15;15.23;;;;;;;21.09;60.34;99432.41;4461349;32;20672;-92
2023/04/11 09:32:34;;;;;;;22.30;14.70;;;;;;;21.17;60.35;99430.94;4469537;32;20177;-92
2023/04/11 09:35:06;;;;;;;22.35;12.52;;;;;;;21.25;60.35;99431.19;4486291;31;20130;-92
2023/04/11 09:37:45;;;;;;;21.77;13.52;;;;;;;21.13;60.34;99428.53;4484840;32;20088;-93
2023/04/11 09:40:11;;;;;;;23.13;14.47;;;;;;;21.27;60.35;99435.38;4484767;32;20155;-92
2023/04/11 09:42:37;;;;;;;25.62;16.27;;;;;;;21.14;60.34;99440.81;4464782;31;20853;-93
2023/04/11 09:45:03;;;;;;;18.00;12.02;;;;;;;21.22;60.34;99434.03;4472406;31;20140;-92
2023/04/11 09:47:32;;;;;;;21.33;12.52;;;;;;;21.17;60.33;99430.94;4487436;31;20129;-93
2023/04/11 09:49:58;;;;;;;18.90;11.90;;;;;;;21.09;60.34;99426.28;4476982;31;20096;-93
2023/04/11 09:52:23;;;;;;;20.52;11.73;;;;;;;21.13;60.34;99417.94;4478619;32;20104;-92
2023/04/11 09:54:49;;;;;;;18.83;12.70;;;;;;;21.18;60.35;99416.75;4458571;32;20138;-92
2023/04/11 09:57:14;;;;;;;18.95;11.88;;;;;;;21.34;60.35;99407.47;4467514;31;20163;-92
2023/04/11 09:59:40;;;;;;;18.90;11.70;;;;;;;21.34;60.36;99402.16;4460010;32;20123;-92
2023/04/11 10:02:05;;;;;;;19.75;11.77;;;;;;;21.53;60.37;99405.94;4467195;31;20493;-92
2023/04/11 10:04:33;;;;;;;21.17;12.90;;;;;;;21.56;60.37;99403.91;4470442;32;24757;-93
2023/04/11 10:07:02;;;;;;;18.83;12.15;;;;;;;21.58;60.37;99401.13;4459004;32;20151;-93
2023/04/11 10:09:28;;;;;;;19.20;12.23;;;;;;;21.65;60.37;99394.31;4471502;32;20108;-92
2023/04/11 10:11:54;;;;;;;23.42;13.30;;;;;;;21.71;60.38;99392.00;4458545;32;20539;-93
2023/04/11 10:14:38;;;;;;;25.50;14.02;;;;;;;21.74;60.38;99386.44;4471142;32;20161;-92
2023/04/11 10:17:17;;;;;;;20.55;13.07;;;;;;;21.98;60.38;99394.13;4485792;31;20152;-92
2023/04/11 10:19:43;;;;;;;22.40;14.07;;;;;;;22.14;60.40;99377.81;4478303;31;20448;-92
2023/04/11 10:22:08;;;;;;;23.85;13.95;;;;;;;22.12;60.40;99370.97;4485121;31;20135;-92
2023/04/11 10:24:34;;;;;;;22.40;12.93;;;;;;;21.97;60.39;99367.75;4465272;31;20111;-92
2023/04/11 10:27:02;;;;;;;19.33;13.05;;;;;;;21.92;60.38;99367.31;4472326;31;20448;-92
2023/04/11 10:29:39;;;;;;;19.98;12.85;;;;;;;21.87;60.39;99365.06;4487247;31;20141;-92
2023/04/11 10:32:14;;;;;;;25.33;14.68;;;;;;;21.92;60.39;99364.66;4487652;31;20157;-92
2023/04/11 10:34:59;;;;;;;19.95;12.52;;;;;;;22.05;60.39;99352.09;4485730;31;20092;-92
2023/04/11 10:37:32;;;;;;;21.87;12.30;;;;;;;21.98;60.39;99342.94;4484101;32;20092;-92
2023/04/11 10:40:00;;;;;;;21.95;13.27;;;;;;;21.95;60.39;99352.00;4481580;31;20383;-92
2023/04/11 10:42:30;;;;;;;23.48;13.80;;;;;;;21.95;60.39;99348.50;4484231;32;20131;-93
2023/04/11 10:45:24;;;;;;;20.98;12.10;;;;;;;22.03;60.40;99340.75;4471498;31;20117;-92
2023/04/11 10:47:55;;;;;;;20.52;12.55;;;;;;;21.99;60.39;99340.16;4484333;31;20115;-92
2023/04/11 10:50:24;;;;;;;18.62;11.40;;;;;;;22.00;60.39;99333.91;4484140;32;20146;-92
2023/04/11 10:52:49;;;;;;;16.73;11.25;;;;;;;22.07;60.39;99330.75;4484260;31;20112;-91
2023/04/11 10:55:18;;;;;;;19.92;11.90;;;;;;;22.23;60.40;99323.13;4484251;32;20135;-92
2023/04/11 10:58:06;;;;;;;18.08;11.25;;;;;;;22.34;60.41;99326.53;4471441;31;20423;-92
2023/04/11 11:00:48;;;;;;;15.35;10.40;;;;;;;22.47;60.41;99318.34;4484237;32;20096;-92
2023/04/11 11:03:18;;;;;;;15.80;9.57;;;;;;;22.64;60.43;99303.59;4496134;31;20100;-91
2023/04/11 11:05:43;;;;;;;15.95;9.88;;;;;;;22.64;60.43;99314.22;4481573;31;20112;-92
2023/04/11 11:08:09;;;;;;;15.85;10.07;;;;;;;22.71;60.42;99310.03;4470860;32;20157;-91
2023/04/11 11:10:42;;;;;;;16.73;10.18;;;;;;;22.81;60.44;99302.09;4471077;31;20111;-92
2023/04/11 11:13:07;;;;;;;17.92;10.15;;;;;;;22.96;60.45;99287.50;4470137;32;20457;-90
2023/04/11 11:15:36;;;;;;;15.30;9.65;;;;;;;22.94;60.43;99287.59;4480026;31;20099;-91
2023/04/11 11:18:07;;;;;;;12.65;8.75;;;;;;;23.15;60.45;99283.97;4458159;32;20096;-90
2023/04/11 11:20:33;;;;;;;13.55;8.95;;;;;;;23.23;60.46;99279.66;4480682;31;20530;-90